Time;durP1;ratioP1;P1;durP2;ratioP2;P2;SDS_P1;SDS_P2;PMS_P1;PMS_P2;Temp;Humidity;BMP_temperature;BMP_pressure;BME280_temperature;BME280_humidity;BME280_pressure;Samples;Min_cycle;Max_cycle;Signal;HPM_P1;HPM_P2
2023/02/23 00:01:27;;;;;;;0.10;0.10;;;7.70;99.90;;;;;;4997828;28;20034;-74
2023/02/23 00:03:55;;;;;;;0.20;0.20;;;7.70;99.90;;;;;;4998562;28;20027;-74
2023/02/23 00:06:21;;;;;;;0.20;0.20;;;7.70;99.90;;;;;;4998280;28;20453;-73
2023/02/23 00:08:47;;;;;;;0.20;0.20;;;7.80;99.90;;;;;;4997636;28;20030;-73
2023/02/23 00:11:14;;;;;;;0.20;0.20;;;7.80;99.90;;;;;;4997142;28;20077;-74
2023/02/23 00:13:45;;;;;;;0.15;0.15;;;7.80;99.90;;;;;;4997899;28;20026;-74
2023/02/23 00:16:16;;;;;;;0.10;0.10;;;7.80;99.90;;;;;;4998614;28;20033;-74
2023/02/23 00:18:43;;;;;;;0.20;0.20;;;7.80;99.90;;;;;;4998370;28;20046;-73
2023/02/23 00:21:17;;;;;;;0.15;0.15;;;7.80;99.90;;;;;;4997899;28;20053;-74
2023/02/23 00:23:55;;;;;;;0.20;0.20;;;7.80;99.90;;;;;;4997977;28;20077;-74
2023/02/23 00:26:23;;;;;;;0.10;0.10;;;7.80;99.90;;;;;;4995712;28;20030;-74
2023/02/23 00:28:52;;;;;;;0.20;0.20;;;7.80;99.90;;;;;;4997848;28;20049;-73
2023/02/23 00:31:22;;;;;;;0.10;0.10;;;7.80;99.90;;;;;;4997605;28;20037;-74
2023/02/23 00:33:50;;;;;;;0.10;0.10;;;7.80;99.90;;;;;;4998382;28;20022;-73
2023/02/23 00:36:15;;;;;;;0.20;0.20;;;7.80;99.90;;;;;;4997297;28;20018;-74
2023/02/23 00:38:41;;;;;;;0.20;0.20;;;7.80;99.90;;;;;;4998465;28;20097;-74
2023/02/23 00:41:15;;;;;;;0.15;0.15;;;7.80;99.90;;;;;;4996795;28;20030;-73
2023/02/23 00:43:46;;;;;;;0.20;0.20;;;7.80;99.90;;;;;;4997247;28;20034;-73
2023/02/23 00:46:16;;;;;;;0.10;0.10;;;7.80;99.90;;;;;;4997688;28;20026;-73
2023/02/23 00:48:44;;;;;;;0.20;0.20;;;7.80;99.90;;;;;;4997563;28;20026;-74
2023/02/23 00:51:11;;;;;;;0.20;0.20;;;7.80;99.90;;;;;;4997433;28;20029;-73
2023/02/23 00:53:37;;;;;;;0.20;0.20;;;7.80;99.90;;;;;;4997679;28;20026;-74
2023/02/23 00:56:08;;;;;;;0.20;0.20;;;7.80;99.90;;;;;;4995961;28;20030;-73
2023/02/23 00:58:33;;;;;;;0.20;0.20;;;7.80;99.90;;;;;;4997555;28;20030;-74
2023/02/23 01:00:59;;;;;;;0.13;0.13;;;7.80;99.90;;;;;;4996214;28;20034;-74
2023/02/23 01:03:27;;;;;;;0.10;0.10;;;7.80;99.90;;;;;;4997326;28;20101;-74
2023/02/23 01:05:54;;;;;;;0.10;0.10;;;7.80;99.90;;;;;;4996753;28;20062;-74
2023/02/23 01:08:21;;;;;;;0.20;0.20;;;7.80;99.90;;;;;;4996425;28;20029;-74
2023/02/23 01:10:51;;;;;;;0.20;0.20;;;7.80;99.90;;;;;;4995938;28;20396;-73
2023/02/23 01:13:19;;;;;;;0.20;0.20;;;7.80;99.90;;;;;;4996787;28;20062;-74
2023/02/23 01:15:46;;;;;;;0.10;0.10;;;7.80;99.90;;;;;;4997362;28;20494;-74
2023/02/23 01:18:13;;;;;;;0.10;0.10;;;7.80;99.90;;;;;;4994235;28;20042;-73
2023/02/23 01:20:40;;;;;;;0.10;0.10;;;7.80;99.90;;;;;;4995978;28;20030;-74
2023/02/23 01:23:07;;;;;;;0.20;0.20;;;7.80;99.90;;;;;;4995525;28;20041;-73
2023/02/23 01:25:33;;;;;;;0.20;0.20;;;7.80;99.90;;;;;;4995803;28;20026;-74
2023/02/23 01:27:59;;;;;;;0.20;0.20;;;7.80;99.90;;;;;;4994589;28;20046;-74
2023/02/23 01:30:25;;;;;;;0.20;0.20;;;7.80;99.90;;;;;;4995361;28;20022;-74
2023/02/23 01:32:51;;;;;;;0.10;0.10;;;7.80;99.90;;;;;;4996281;28;20041;-74
2023/02/23 01:35:17;;;;;;;0.13;0.13;;;7.90;99.90;;;;;;4995798;28;20050;-74
2023/02/23 01:37:43;;;;;;;0.13;0.13;;;7.80;99.90;;;;;;4995888;28;20073;-73
2023/02/23 01:40:15;;;;;;;0.10;0.10;;;7.80;99.90;;;;;;4995181;28;20088;-73
2023/02/23 01:42:44;;;;;;;0.20;0.20;;;7.90;99.90;;;;;;4996294;28;20093;-74
2023/02/23 01:45:47;;;;;;;0.13;0.13;;;7.90;99.90;;;;;;4995540;28;20483;-73
2023/02/23 01:48:17;;;;;;;0.20;0.20;;;7.90;99.90;;;;;;4993570;28;20038;-74
2023/02/23 01:50:53;;;;;;;0.20;0.20;;;7.80;99.90;;;;;;4995800;28;20304;-73
2023/02/23 01:53:20;;;;;;;0.15;0.15;;;7.80;99.90;;;;;;5004468;28;20428;-74
2023/02/23 01:55:49;;;;;;;0.20;0.20;;;7.90;99.90;;;;;;4995517;28;20464;-74
2023/02/23 01:58:18;;;;;;;0.20;0.20;;;7.80;99.90;;;;;;4995876;28;20033;-74
2023/02/23 02:00:53;;;;;;;0.20;0.20;;;7.80;99.90;;;;;;4995400;28;20483;-74
2023/02/23 02:03:35;;;;;;;0.20;0.20;;;7.80;99.90;;;;;;4995699;28;20506;-74
2023/02/23 02:06:03;;;;;;;0.17;0.17;;;7.90;99.90;;;;;;4994579;28;20109;-73
2023/02/23 02:08:31;;;;;;;0.10;0.10;;;7.80;99.90;;;;;;4994412;28;20022;-73
2023/02/23 02:10:56;;;;;;;0.10;0.10;;;7.80;99.90;;;;;;4994676;28;20034;-74
2023/02/23 02:13:28;;;;;;;0.10;0.10;;;7.80;99.90;;;;;;4995224;28;20539;-73
2023/02/23 02:18:58;;;;;;;0.20;0.20;;;7.80;99.90;;;;;;5071841;28;20386;-75
2023/02/23 02:21:59;;;;;;;0.20;0.20;;;7.80;99.90;;;;;;5072105;28;20053;-75
2023/02/23 02:24:43;;;;;;;0.20;0.20;;;7.80;99.90;;;;;;5070825;28;20114;-75
2023/02/23 02:27:25;;;;;;;0.10;0.10;;;7.80;99.90;;;;;;5072766;28;20032;-74
2023/02/23 02:30:11;;;;;;;0.20;0.20;;;7.80;99.90;;;;;;5071209;28;20017;-74
2023/02/23 02:32:46;;;;;;;0.10;0.10;;;7.80;99.90;;;;;;5072291;28;20081;-75
2023/02/23 02:35:36;;;;;;;0.20;0.20;;;7.80;99.90;;;;;;5071982;28;20117;-75
2023/02/23 02:38:36;;;;;;;0.20;0.20;;;7.80;99.90;;;;;;5072153;28;20112;-75
2023/02/23 02:41:16;;;;;;;0.20;0.20;;;7.80;99.90;;;;;;5072746;28;20032;-74
2023/02/23 02:43:49;;;;;;;0.20;0.20;;;7.80;99.90;;;;;;5072187;28;20580;-74
2023/02/23 02:46:33;;;;;;;0.20;0.20;;;7.80;99.90;;;;;;5072058;28;20016;-74
2023/02/23 02:48:59;;;;;;;;;;;7.80;99.90;;;;;;5072303;28;20033;-74
2023/02/23 02:51:43;;;;;;;0.20;0.20;;;7.80;99.90;;;;;;5071865;28;20011;-74
2023/02/23 02:54:38;;;;;;;0.10;0.10;;;7.90;99.90;;;;;;5070906;28;20066;-74
2023/02/23 02:57:05;;;;;;;0.20;0.20;;;7.80;99.90;;;;;;5071250;28;20023;-74
2023/02/23 04:17:59;;;;;;;0.20;0.20;;;7.10;99.90;;;;;;5017097;28;20513;-74
2023/02/23 04:20:26;;;;;;;0.10;0.10;;;7.10;99.90;;;;;;5016510;28;20104;-75
2023/02/23 04:22:52;;;;;;;0.10;0.10;;;7.00;99.90;;;;;;5016716;28;20109;-74
2023/02/23 04:25:21;;;;;;;0.10;0.10;;;7.00;99.90;;;;;;5016282;28;20487;-74
2023/02/23 04:27:47;;;;;;;0.10;0.10;;;7.00;99.90;;;;;;5016252;28;20075;-74
2023/02/23 04:30:13;;;;;;;0.20;0.20;;;7.00;99.90;;;;;;5015276;28;20021;-74
2023/02/23 04:32:38;;;;;;;0.20;0.20;;;7.00;99.90;;;;;;5016232;28;20029;-74
2023/02/23 04:35:04;;;;;;;0.10;0.10;;;7.00;99.90;;;;;;5016729;28;20109;-74
2023/02/23 04:37:30;;;;;;;0.20;0.20;;;7.00;99.90;;;;;;5014560;28;20490;-75
2023/02/23 04:39:55;;;;;;;0.20;0.20;;;7.00;99.90;;;;;;5014566;28;20022;-74
2023/02/23 04:42:21;;;;;;;0.10;0.10;;;7.00;99.90;;;;;;5014676;28;20123;-75
2023/02/23 04:44:47;;;;;;;0.10;0.10;;;6.90;99.90;;;;;;5004145;28;20036;-75
2023/02/23 04:47:16;;;;;;;0.10;0.10;;;6.90;99.90;;;;;;5004296;28;20027;-75
2023/02/23 04:49:42;;;;;;;0.20;0.20;;;6.90;99.90;;;;;;5004857;28;20037;-75
2023/02/23 04:52:08;;;;;;;0.20;0.20;;;6.90;99.90;;;;;;5016278;28;20053;-75
2023/02/23 04:54:38;;;;;;;0.10;0.10;;;6.90;99.90;;;;;;5013971;28;20088;-75
2023/02/23 04:57:04;;;;;;;0.10;0.10;;;6.90;99.90;;;;;;4996264;28;20077;-75
2023/02/23 04:59:30;;;;;;;0.10;0.10;;;6.80;99.90;;;;;;5011831;28;20030;-75
2023/02/23 05:01:55;;;;;;;0.20;0.20;;;6.80;99.90;;;;;;5015247;28;20092;-75
2023/02/23 05:04:21;;;;;;;0.10;0.10;;;6.90;99.90;;;;;;5007890;28;20442;-75
2023/02/23 05:06:47;;;;;;;0.13;0.13;;;6.80;99.90;;;;;;5013715;28;20064;-75
2023/02/23 05:09:13;;;;;;;0.20;0.20;;;6.80;99.90;;;;;;4997374;28;20030;-75
2023/02/23 05:11:38;;;;;;;0.10;0.10;;;6.80;99.90;;;;;;4996006;28;20027;-75
2023/02/23 05:14:04;;;;;;;0.10;0.10;;;6.80;99.90;;;;;;5011020;28;20022;-75
2023/02/23 05:16:30;;;;;;;0.10;0.10;;;6.80;99.90;;;;;;4995393;28;20056;-75
2023/02/23 05:18:55;;;;;;;0.10;0.10;;;6.80;99.90;;;;;;4995992;28;20042;-75
2023/02/23 05:21:21;;;;;;;0.20;0.20;;;6.70;99.90;;;;;;5000424;28;20026;-75
2023/02/23 05:23:49;;;;;;;0.20;0.20;;;6.70;99.90;;;;;;5014665;28;20056;-74
2023/02/23 05:26:14;;;;;;;0.10;0.10;;;6.70;99.90;;;;;;5002932;28;20037;-75
2023/02/23 05:28:41;;;;;;;0.10;0.10;;;6.70;99.90;;;;;;5006756;28;20442;-75
2023/02/23 05:31:07;;;;;;;0.10;0.10;;;6.70;99.90;;;;;;5013624;28;20030;-75
2023/02/23 05:33:41;;;;;;;0.10;0.10;;;6.70;99.90;;;;;;4995789;28;20045;-75
2023/02/23 05:36:12;;;;;;;0.17;0.17;;;6.60;99.90;;;;;;5010479;28;20034;-75
2023/02/23 05:38:39;;;;;;;0.10;0.10;;;6.70;99.90;;;;;;5004462;28;20041;-75
2023/02/23 05:41:06;;;;;;;0.20;0.20;;;6.60;99.90;;;;;;4995883;28;20018;-75
2023/02/23 05:43:32;;;;;;;0.20;0.20;;;6.60;99.90;;;;;;4995111;28;20018;-75
2023/02/23 05:46:00;;;;;;;0.20;0.20;;;6.60;99.90;;;;;;4995770;28;20085;-75
2023/02/23 05:48:26;;;;;;;0.10;0.10;;;6.60;99.90;;;;;;5007760;28;20029;-75
2023/02/23 05:50:51;;;;;;;0.10;0.10;;;6.60;99.90;;;;;;5015399;28;20029;-75
2023/02/23 05:53:17;;;;;;;0.20;0.20;;;6.50;99.90;;;;;;5014829;28;20052;-75
2023/02/23 05:55:42;;;;;;;0.17;0.17;;;6.50;99.90;;;;;;5013992;28;20021;-75
2023/02/23 05:58:08;;;;;;;0.20;0.20;;;6.50;99.90;;;;;;5014969;28;20084;-75
2023/02/23 06:00:33;;;;;;;0.10;0.10;;;6.50;99.90;;;;;;5015228;28;20026;-75
2023/02/23 06:02:59;;;;;;;0.10;0.10;;;6.50;99.90;;;;;;5013917;28;20014;-75
2023/02/23 06:05:24;;;;;;;0.20;0.20;;;6.50;99.90;;;;;;5013280;28;20018;-75
2023/02/23 06:07:50;;;;;;;0.10;0.10;;;6.50;99.90;;;;;;5015452;28;20496;-75
2023/02/23 06:10:16;;;;;;;0.20;0.20;;;6.50;99.90;;;;;;5014523;28;20079;-75
2023/02/23 06:12:41;;;;;;;0.20;0.20;;;6.50;99.90;;;;;;5015165;28;20026;-75
2023/02/23 06:15:07;;;;;;;0.10;0.10;;;6.50;99.90;;;;;;5006637;28;20484;-75
2023/02/23 06:17:33;;;;;;;0.10;0.10;;;6.50;99.90;;;;;;5009110;28;20131;-75
2023/02/23 06:20:00;;;;;;;0.10;0.10;;;6.50;99.90;;;;;;5014460;28;20014;-75
2023/02/23 06:22:26;;;;;;;0.10;0.10;;;6.50;99.90;;;;;;4998820;28;20117;-75
2023/02/23 06:24:52;;;;;;;0.20;0.20;;;6.40;99.90;;;;;;5013043;28;20054;-75
2023/02/23 06:27:17;;;;;;;0.10;0.10;;;6.40;99.90;;;;;;5014982;28;20033;-75
2023/02/23 06:29:43;;;;;;;0.10;0.10;;;6.50;99.90;;;;;;5001099;28;20046;-75
2023/02/23 06:32:08;;;;;;;0.10;0.10;;;6.40;99.90;;;;;;4996453;28;20042;-75
2023/02/23 06:34:34;;;;;;;0.20;0.20;;;6.40;99.90;;;;;;4994719;28;20447;-75
2023/02/23 06:36:59;;;;;;;0.20;0.20;;;6.40;99.90;;;;;;4994073;28;20053;-75
2023/02/23 06:39:25;;;;;;;0.20;0.20;;;6.40;99.90;;;;;;4994924;28;20088;-75
2023/02/23 06:41:50;;;;;;;0.10;0.10;;;6.40;99.90;;;;;;4994344;28;20034;-75
2023/02/23 06:44:16;;;;;;;0.20;0.20;;;6.40;99.90;;;;;;4994789;28;20026;-75
2023/02/23 06:46:41;;;;;;;0.10;0.10;;;6.40;99.90;;;;;;4994507;28;20026;-75
2023/02/23 06:49:19;;;;;;;0.10;0.10;;;6.40;99.90;;;;;;4995128;28;20487;-75
2023/02/23 06:51:45;;;;;;;0.20;0.20;;;6.40;99.90;;;;;;4993421;28;20054;-75
2023/02/23 06:54:10;;;;;;;0.15;0.15;;;6.40;99.90;;;;;;4993466;28;20042;-75
2023/02/23 06:56:36;;;;;;;0.20;0.20;;;6.40;99.90;;;;;;4994841;28;20033;-75
2023/02/23 06:59:01;;;;;;;0.20;0.20;;;6.40;99.90;;;;;;4994696;28;20022;-75
2023/02/23 07:01:27;;;;;;;0.10;0.10;;;6.40;99.90;;;;;;4994984;28;20026;-75
2023/02/23 07:03:52;;;;;;;0.10;0.10;;;6.40;99.90;;;;;;4995601;28;20018;-75
2023/02/23 07:06:18;;;;;;;0.15;0.15;;;6.40;99.90;;;;;;4998562;28;20047;-75
2023/02/23 07:08:43;;;;;;;0.13;0.13;;;6.40;99.90;;;;;;4998624;28;20046;-75
2023/02/23 07:11:14;;;;;;;0.10;0.10;;;6.40;99.90;;;;;;4998693;28;20030;-75
2023/02/23 07:13:41;;;;;;;0.10;0.10;;;6.50;99.90;;;;;;4998351;28;20041;-75
2023/02/23 07:16:07;;;;;;;0.17;0.17;;;6.50;99.90;;;;;;4997059;28;20031;-75
2023/02/23 07:18:33;;;;;;;0.10;0.10;;;6.40;99.90;;;;;;4998006;28;20022;-75
2023/02/23 07:20:58;;;;;;;0.20;0.20;;;6.50;99.90;;;;;;4998185;28;20026;-75
2023/02/23 07:23:24;;;;;;;0.15;0.15;;;6.50;99.90;;;;;;4998406;28;20026;-75
2023/02/23 07:25:51;;;;;;;0.20;0.20;;;6.50;99.90;;;;;;4998344;28;20027;-75
2023/02/23 07:28:16;;;;;;;0.10;0.10;;;6.50;99.90;;;;;;4997271;28;20125;-75
2023/02/23 07:30:42;;;;;;;0.10;0.10;;;6.50;99.90;;;;;;4998938;28;20068;-75
2023/02/23 07:33:07;;;;;;;0.10;0.10;;;6.50;99.90;;;;;;5000133;28;20037;-75
2023/02/23 07:35:33;;;;;;;0.10;0.10;;;6.50;99.90;;;;;;4999372;28;20038;-75
2023/02/23 07:37:58;;;;;;;0.10;0.10;;;6.50;99.90;;;;;;4998601;28;20030;-75
2023/02/23 07:40:24;;;;;;;0.10;0.10;;;6.50;99.90;;;;;;4997836;28;20030;-75
2023/02/23 07:42:50;;;;;;;0.10;0.10;;;6.50;99.90;;;;;;4997863;28;20018;-75
2023/02/23 07:45:16;;;;;;;0.10;0.10;;;6.50;99.90;;;;;;4997936;28;20030;-75
2023/02/23 07:47:42;;;;;;;0.17;0.17;;;6.50;99.90;;;;;;4998001;28;20045;-75
2023/02/23 07:50:09;;;;;;;0.10;0.10;;;6.50;99.90;;;;;;4997665;28;20109;-74
2023/02/23 07:52:36;;;;;;;0.17;0.17;;;6.60;99.90;;;;;;4996535;28;20030;-75
2023/02/23 07:55:02;;;;;;;0.10;0.10;;;6.60;99.90;;;;;;4997686;28;20117;-75
2023/02/23 07:57:28;;;;;;;0.20;0.20;;;6.60;99.90;;;;;;4996532;28;20022;-75
2023/02/23 07:59:54;;;;;;;0.15;0.15;;;6.60;99.90;;;;;;4997901;28;20026;-75
2023/02/23 08:02:19;;;;;;;0.20;0.20;;;6.70;99.90;;;;;;4997672;28;20097;-75
2023/02/23 08:04:45;;;;;;;0.10;0.10;;;6.70;99.90;;;;;;4996423;28;20073;-75
2023/02/23 08:07:10;;;;;;;0.10;0.10;;;6.70;99.90;;;;;;4996982;28;20049;-75
2023/02/23 08:09:36;;;;;;;0.10;0.10;;;6.70;99.90;;;;;;5009152;28;20073;-75
2023/02/23 08:12:02;;;;;;;0.10;0.10;;;6.70;99.90;;;;;;5012077;28;20392;-75
2023/02/23 08:14:27;;;;;;;0.20;0.20;;;6.80;99.90;;;;;;5012435;28;20033;-75
2023/02/23 08:17:02;;;;;;;0.10;0.10;;;6.80;99.90;;;;;;4996427;28;20113;-75
2023/02/23 08:19:28;;;;;;;0.20;0.20;;;6.70;99.90;;;;;;4996316;28;20018;-75
2023/02/23 08:21:54;;;;;;;0.20;0.20;;;6.80;99.90;;;;;;4997125;28;20026;-75
2023/02/23 08:24:19;;;;;;;0.10;0.10;;;6.80;99.90;;;;;;4997461;28;20410;-75
2023/02/23 08:26:45;;;;;;;0.10;0.10;;;6.80;99.90;;;;;;5007269;28;20030;-75
2023/02/23 08:29:10;;;;;;;0.20;0.20;;;6.80;99.90;;;;;;5016124;28;20080;-75
2023/02/23 08:31:36;;;;;;;0.10;0.10;;;6.80;99.90;;;;;;5016946;28;20164;-75
2023/02/23 08:34:01;;;;;;;0.20;0.20;;;6.80;99.90;;;;;;5016182;28;20030;-75
2023/02/23 08:36:27;;;;;;;0.20;0.20;;;6.80;99.90;;;;;;5016777;28;20030;-75
2023/02/23 08:38:53;;;;;;;0.20;0.20;;;6.80;99.90;;;;;;5014815;28;20506;-74
2023/02/23 08:41:19;;;;;;;0.20;0.20;;;6.80;99.90;;;;;;5016114;28;20449;-74
2023/02/23 08:43:45;;;;;;;0.17;0.17;;;6.80;99.90;;;;;;5014743;28;20117;-74
2023/02/23 08:46:12;;;;;;;0.10;0.10;;;6.80;99.90;;;;;;5009029;28;20102;-76
2023/02/23 08:48:40;;;;;;;0.17;0.17;;;6.80;99.90;;;;;;4995280;28;20030;-75
2023/02/23 08:51:06;;;;;;;0.20;0.20;;;6.80;99.90;;;;;;5011566;28;20034;-75
2023/02/23 08:53:32;;;;;;;0.20;0.20;;;6.80;99.90;;;;;;4996238;28;20030;-75
2023/02/23 08:56:00;;;;;;;0.20;0.20;;;6.80;99.90;;;;;;5013979;28;20029;-75
2023/02/23 08:58:27;;;;;;;0.20;0.20;;;6.90;99.90;;;;;;5003399;28;20021;-75
2023/02/23 09:00:53;;;;;;;0.10;0.10;;;6.90;99.90;;;;;;5015480;28;20053;-75
2023/02/23 09:03:20;;;;;;;0.20;0.20;;;6.90;99.90;;;;;;5015920;28;20056;-75
2023/02/23 09:05:45;;;;;;;0.15;0.15;;;6.90;99.90;;;;;;5013920;28;20052;-75
2023/02/23 09:08:12;;;;;;;0.10;0.10;;;6.90;99.90;;;;;;5009800;28;20026;-76
2023/02/23 09:10:38;;;;;;;0.15;0.15;;;6.90;99.90;;;;;;4996796;28;20123;-75
2023/02/23 09:13:04;;;;;;;0.10;0.10;;;6.90;99.90;;;;;;5006506;28;20026;-78
2023/02/23 09:15:29;;;;;;;0.13;0.13;;;6.90;99.90;;;;;;5018614;28;20510;-78
2023/02/23 09:18:00;;;;;;;0.10;0.10;;;6.90;99.90;;;;;;5046201;22;20045;-73
2023/02/23 09:20:25;;;;;;;0.15;0.15;;;6.90;99.90;;;;;;5022637;28;20030;-73
2023/02/23 09:22:52;;;;;;;0.15;0.15;;;7.00;99.90;;;;;;5026692;28;20109;-73
2023/02/23 09:25:21;;;;;;;0.10;0.10;;;7.00;99.90;;;;;;5023827;28;20034;-73
2023/02/23 09:27:55;;;;;;;0.10;0.10;;;7.00;99.90;;;;;;5027265;28;20041;-73
2023/02/23 09:30:22;;;;;;;0.20;0.20;;;7.10;99.90;;;;;;5023801;28;20521;-72
2023/02/23 09:32:52;;;;;;;0.20;0.20;;;7.10;99.90;;;;;;5025599;28;20030;-74
2023/02/23 09:35:20;;;;;;;0.20;0.20;;;7.10;99.90;;;;;;5025899;28;20549;-73
2023/02/23 09:37:48;;;;;;;0.20;0.20;;;7.30;99.90;;;;;;5017840;28;20040;-74
2023/02/23 09:40:17;;;;;;;0.10;0.10;;;7.30;99.90;;;;;;5029608;28;20068;-74
2023/02/23 09:42:59;;;;;;;0.10;0.10;;;7.30;99.90;;;;;;5029714;28;20030;-73
2023/02/23 09:45:50;;;;;;;0.17;0.17;;;7.40;99.90;;;;;;5031330;28;20109;-73
2023/02/23 09:48:24;;;;;;;0.10;0.10;;;7.60;99.90;;;;;;5024364;28;20017;-74
2023/02/23 09:50:53;;;;;;;0.10;0.10;;;7.80;99.90;;;;;;5023586;28;20044;-72
2023/02/23 09:53:36;;;;;;;0.10;0.10;;;7.80;99.90;;;;;;5024256;28;20072;-74
2023/02/23 09:56:11;;;;;;;0.10;0.10;;;7.70;99.90;;;;;;5026335;28;20076;-73
2023/02/23 09:58:38;;;;;;;0.20;0.20;;;7.80;99.90;;;;;;5028881;28;20055;-74
2023/02/23 10:01:34;;;;;;;0.10;0.10;;;7.80;99.90;;;;;;5026838;28;20402;-74
2023/02/23 10:04:14;;;;;;;0.10;0.10;;;7.80;99.90;;;;;;5021278;28;20036;-74
2023/02/23 10:06:45;;;;;;;0.13;0.13;;;7.80;99.90;;;;;;5029966;28;20025;-74
2023/02/23 10:09:14;;;;;;;0.10;0.10;;;7.80;99.90;;;;;;5023257;28;20030;-75
2023/02/23 10:11:48;;;;;;;0.20;0.20;;;7.90;99.90;;;;;;5024419;28;20483;-75
2023/02/23 10:14:32;;;;;;;0.10;0.10;;;8.10;99.90;;;;;;5023381;28;20053;-74
2023/02/23 10:17:34;;;;;;;0.20;0.20;;;8.20;99.90;;;;;;5026535;28;20022;-74
2023/02/23 10:20:22;;;;;;;0.20;0.20;;;8.30;99.90;;;;;;5020695;28;20033;-72
2023/02/23 10:22:50;;;;;;;0.10;0.10;;;8.40;99.90;;;;;;5014894;28;20491;-72
2023/02/23 10:25:29;;;;;;;0.10;0.10;;;8.50;99.90;;;;;;5030388;28;20030;-73
2023/02/23 10:27:57;;;;;;;0.20;0.20;;;8.40;99.90;;;;;;5033156;28;20026;-73
2023/02/23 10:30:30;;;;;;;0.20;0.20;;;8.40;99.90;;;;;;5034289;28;20528;-73
2023/02/23 10:33:09;;;;;;;0.10;0.10;;;8.40;99.90;;;;;;5034088;28;20029;-73
2023/02/23 10:35:37;;;;;;;0.15;0.15;;;8.30;99.90;;;;;;5021981;28;20072;-72
2023/02/23 10:38:03;;;;;;;0.10;0.10;;;8.20;99.90;;;;;;5034322;28;20029;-73
2023/02/23 10:40:32;;;;;;;0.20;0.20;;;8.20;99.90;;;;;;5038064;28;20027;-73
2023/02/23 10:43:00;;;;;;;0.10;0.10;;;8.20;99.90;;;;;;5038463;28;20427;-72
2023/02/23 10:45:27;;;;;;;0.10;0.10;;;8.10;99.90;;;;;;5038051;28;20020;-72
2023/02/23 10:48:07;;;;;;;0.20;0.20;;;8.10;99.90;;;;;;5037679;28;20060;-72
2023/02/23 10:50:37;;;;;;;0.10;0.10;;;8.00;99.90;;;;;;5038220;28;20029;-72
2023/02/23 10:53:15;;;;;;;0.17;0.17;;;8.10;99.90;;;;;;5037973;28;20026;-72
2023/02/23 10:55:44;;;;;;;0.10;0.10;;;8.10;99.90;;;;;;5037748;28;20022;-72
2023/02/23 10:58:18;;;;;;;0.10;0.10;;;8.00;99.90;;;;;;5025704;28;20026;-72
2023/02/23 11:01:01;;;;;;;0.10;0.10;;;7.90;99.90;;;;;;5036007;28;20028;-72
2023/02/23 11:04:06;;;;;;;0.13;0.13;;;8.00;99.90;;;;;;5037913;28;20025;-73
2023/02/23 11:06:38;;;;;;;0.20;0.20;;;7.90;99.90;;;;;;5021675;28;20025;-72
2023/02/23 11:09:24;;;;;;;0.20;0.20;;;7.80;99.90;;;;;;5038036;28;20442;-72
2023/02/23 11:12:20;;;;;;;0.10;0.10;;;7.80;99.90;;;;;;5037988;28;20021;-72
2023/02/23 11:14:47;;;;;;;0.13;0.13;;;7.90;99.90;;;;;;5037665;28;20028;-72
2023/02/23 11:17:32;;;;;;;0.20;0.20;;;8.00;99.90;;;;;;5033852;28;20085;-73
2023/02/23 11:20:01;;;;;;;0.13;0.13;;;8.00;99.90;;;;;;5022611;28;20058;-73
2023/02/23 11:22:31;;;;;;;0.20;0.20;;;8.00;99.90;;;;;;5025274;28;20104;-72
2023/02/23 11:24:57;;;;;;;0.10;0.10;;;8.00;99.90;;;;;;5029618;28;20045;-73
2023/02/23 11:27:26;;;;;;;0.20;0.20;;;8.00;99.90;;;;;;5031476;28;20029;-73
2023/02/23 11:29:55;;;;;;;0.10;0.10;;;8.00;99.90;;;;;;5027784;28;20030;-73
2023/02/23 11:32:28;;;;;;;0.10;0.10;;;8.00;99.90;;;;;;5024976;28;20037;-73
2023/02/23 11:35:12;;;;;;;0.20;0.20;;;8.00;99.90;;;;;;5026711;28;20037;-73
2023/02/23 11:37:40;;;;;;;0.20;0.20;;;8.10;99.90;;;;;;5027776;28;20482;-73
2023/02/23 11:40:22;;;;;;;0.20;0.20;;;8.10;99.90;;;;;;5025295;28;20018;-72
2023/02/23 11:42:55;;;;;;;0.20;0.20;;;8.00;99.90;;;;;;5028545;28;20108;-73
2023/02/23 11:45:22;;;;;;;0.10;0.10;;;8.00;99.90;;;;;;5023111;28;20029;-73
2023/02/23 11:47:51;;;;;;;0.13;0.13;;;7.90;99.90;;;;;;5025926;28;20281;-73
2023/02/23 11:50:33;;;;;;;0.10;0.10;;;7.80;99.90;;;;;;5025829;28;20021;-73
2023/02/23 11:53:18;;;;;;;0.20;0.20;;;7.70;99.90;;;;;;5029012;28;20032;-73
2023/02/23 11:55:51;;;;;;;0.20;0.20;;;7.70;99.90;;;;;;5035818;28;20033;-73
2023/02/23 11:58:32;;;;;;;0.10;0.10;;;7.60;99.90;;;;;;5037177;28;20044;-73
2023/02/23 12:01:13;;;;;;;0.20;0.20;;;7.60;99.90;;;;;;5023224;28;20026;-73
2023/02/23 12:03:54;;;;;;;0.20;0.20;;;7.50;99.90;;;;;;5036333;28;20026;-73
2023/02/23 12:06:38;;;;;;;0.10;0.10;;;7.60;99.90;;;;;;5036430;28;20030;-73
2023/02/23 12:09:30;;;;;;;0.15;0.15;;;7.80;99.90;;;;;;5036680;28;20025;-73
2023/02/23 12:12:18;;;;;;;0.10;0.10;;;7.90;99.90;;;;;;5036560;28;20049;-73
2023/02/23 12:14:55;;;;;;;0.13;0.13;;;8.10;99.90;;;;;;5035988;28;20014;-72
2023/02/23 12:17:27;;;;;;;0.20;0.20;;;8.20;99.90;;;;;;5034261;28;20099;-72
2023/02/23 12:19:59;;;;;;;0.10;0.10;;;8.00;99.90;;;;;;5034644;28;20017;-72
2023/02/23 12:22:34;;;;;;;0.10;0.10;;;7.90;99.90;;;;;;5035958;28;20018;-72
2023/02/23 12:25:08;;;;;;;0.10;0.10;;;7.90;99.90;;;;;;5034470;28;20053;-72
2023/02/23 12:27:41;;;;;;;0.10;0.10;;;7.70;99.90;;;;;;5035637;28;20025;-73
2023/02/23 12:30:38;;;;;;;0.10;0.10;;;7.70;99.90;;;;;;5036142;28;20033;-73
2023/02/23 12:33:08;;;;;;;0.20;0.20;;;7.70;99.90;;;;;;5034441;28;20479;-73
2023/02/23 12:36:10;;;;;;;0.20;0.20;;;7.70;99.90;;;;;;5034502;28;20021;-73
2023/02/23 12:38:53;;;;;;;0.20;0.20;;;7.70;99.90;;;;;;5035383;28;20080;-73
2023/02/23 12:41:32;;;;;;;0.10;0.10;;;7.60;99.90;;;;;;5034173;28;20029;-73
2023/02/23 12:44:25;;;;;;;0.10;0.10;;;7.50;99.90;;;;;;5035702;28;20372;-73
2023/02/23 12:46:56;;;;;;;0.17;0.17;;;7.50;99.90;;;;;;5033881;28;20025;-73
2023/02/23 12:49:40;;;;;;;0.10;0.10;;;7.60;99.90;;;;;;5035883;28;20108;-73
2023/02/23 12:52:15;;;;;;;0.20;0.20;;;7.70;99.90;;;;;;5035637;28;20029;-75
2023/02/23 12:54:45;;;;;;;0.20;0.20;;;7.70;99.90;;;;;;5035126;28;20445;-74
2023/02/23 12:57:30;;;;;;;0.10;0.10;;;7.80;99.90;;;;;;5032058;28;20623;-74
2023/02/23 13:00:29;;;;;;;0.15;0.15;;;7.80;99.90;;;;;;5016053;28;20484;-74
2023/02/23 13:03:13;;;;;;;0.20;0.20;;;7.80;99.90;;;;;;5017594;28;20018;-74
2023/02/23 13:05:56;;;;;;;0.20;0.20;;;7.90;99.90;;;;;;5035027;28;20021;-74
2023/02/23 13:08:32;;;;;;;0.20;0.20;;;7.90;99.90;;;;;;5034593;28;20034;-73
2023/02/23 13:11:12;;;;;;;0.10;0.10;;;7.90;99.90;;;;;;5015286;28;20028;-74
2023/02/23 13:13:58;;;;;;;0.10;0.10;;;7.90;99.90;;;;;;5030372;28;20029;-75
2023/02/23 13:16:57;;;;;;;0.15;0.15;;;7.70;99.90;;;;;;5024523;28;20021;-75
2023/02/23 13:19:41;;;;;;;0.10;0.10;;;7.80;99.90;;;;;;5024471;28;20045;-74
2023/02/23 13:22:29;;;;;;;0.15;0.15;;;7.60;99.90;;;;;;5033581;28;20099;-75
2023/02/23 13:25:00;;;;;;;0.20;0.20;;;7.50;99.90;;;;;;5034952;28;20056;-74
2023/02/23 13:27:41;;;;;;;0.13;0.13;;;7.40;99.90;;;;;;5033194;28;20018;-75
2023/02/23 13:30:11;;;;;;;0.15;0.15;;;7.30;99.90;;;;;;5035045;28;20040;-74
2023/02/23 13:32:38;;;;;;;0.20;0.20;;;7.20;99.90;;;;;;5034582;28;20136;-75
2023/02/23 13:35:14;;;;;;;0.20;0.20;;;7.10;99.90;;;;;;5034642;28;20036;-75
2023/02/23 13:37:53;;;;;;;0.17;0.17;;;7.10;99.90;;;;;;5033808;28;20079;-75
2023/02/23 13:40:45;;;;;;;0.17;0.17;;;7.10;99.90;;;;;;5034784;28;20493;-74
2023/02/23 13:43:37;;;;;;;0.20;0.20;;;7.10;99.90;;;;;;5034932;28;20360;-75
2023/02/23 13:46:36;;;;;;;0.20;0.20;;;7.10;99.90;;;;;;5034525;28;20025;-75
2023/02/23 13:49:50;;;;;;;0.20;0.20;;;7.00;99.90;;;;;;5034254;28;20087;-75
2023/02/23 13:52:27;;;;;;;0.20;0.20;;;6.90;99.90;;;;;;5034417;28;20433;-75
2023/02/23 13:54:57;;;;;;;0.20;0.20;;;6.80;99.90;;;;;;5034127;28;20033;-74
2023/02/23 13:57:26;;;;;;;0.10;0.10;;;6.70;99.90;;;;;;5034427;28;20028;-74
2023/02/23 13:59:52;;;;;;;0.20;0.20;;;6.70;99.90;;;;;;5034042;28;20033;-75
2023/02/23 14:02:34;;;;;;;0.20;0.20;;;6.80;99.90;;;;;;5034079;28;20033;-74
2023/02/23 14:05:23;;;;;;;0.20;0.20;;;6.70;99.90;;;;;;5034626;28;20048;-75
2023/02/23 14:07:55;;;;;;;0.20;0.20;;;6.70;99.90;;;;;;5032794;28;20505;-75
2023/02/23 14:10:24;;;;;;;0.20;0.20;;;6.60;99.90;;;;;;5034330;28;20025;-75
2023/02/23 14:13:14;;;;;;;0.20;0.20;;;6.60;99.90;;;;;;5033783;28;20030;-75
2023/02/23 14:15:48;;;;;;;0.20;0.20;;;6.60;99.90;;;;;;5034103;28;20028;-75
2023/02/23 14:18:16;;;;;;;;;;;6.60;99.90;;;;;;5032955;28;20029;-75
2023/02/23 14:20:52;;;;;;;0.20;0.20;;;6.70;99.90;;;;;;5033993;28;19912;-74
2023/02/23 14:23:21;;;;;;;0.20;0.20;;;6.70;99.90;;;;;;5033752;28;20022;-75
2023/02/23 14:25:47;;;;;;;0.20;0.20;;;6.70;99.90;;;;;;5034329;28;20128;-74
2023/02/23 14:28:26;;;;;;;0.15;0.15;;;6.70;99.90;;;;;;5033866;28;20092;-75
2023/02/23 14:31:14;;;;;;;0.20;0.20;;;6.70;99.90;;;;;;5033660;28;20107;-75
2023/02/23 14:33:40;;;;;;;0.20;0.20;;;6.90;99.90;;;;;;5014132;28;20404;-74
2023/02/23 14:36:20;;;;;;;0.13;0.13;;;6.90;99.90;;;;;;5014089;28;20030;-74
2023/02/23 14:38:55;;;;;;;0.10;0.10;;;6.90;99.90;;;;;;5013322;28;20030;-74
2023/02/23 14:41:30;;;;;;;0.20;0.20;;;6.90;99.90;;;;;;5019135;28;20387;-74
2023/02/23 14:44:10;;;;;;;0.20;0.20;;;7.20;99.90;;;;;;5032312;28;20033;-74